Terminal Aerodrome Forecast
Issued by NWS

Home | Current Version | Previous Version | Text Only | Print | Product List | Glossary On
Versions: 1 2 3 4 5 6 7 8 9 10 11 12 13 14 15
000
FTUS43 KMPX 271731
TAFAXN
TAF
KAXN 271731Z 2718/2818 26007KT P6SM SKC
     FM272000 27007KT P6SM FEW080
     FM280000 00000KT P6SM SKC
     FM280600 15005KT P6SM SCT080 BKN250
     FM281400 19015G25KT P6SM OVC100=

USA.gov is the U.S. government's official web portal to all federal, state and local government web resources and services.